sensor_id;sensor_type;location;lat;lon;timestamp;temperature;humidity
2391;DHT22;22957;50.824;4.360;2023-10-31T00:01:15;12.90;99.90
2391;DHT22;22957;50.824;4.360;2023-10-31T00:03:40;12.60;99.90
2391;DHT22;22957;50.824;4.360;2023-10-31T00:06:08;13.30;99.90
2391;DHT22;22957;50.824;4.360;2023-10-31T00:08:33;13.00;99.90
2391;DHT22;22957;50.824;4.360;2023-10-31T00:10:59;13.00;99.90
2391;DHT22;22957;50.824;4.360;2023-10-31T00:13:24;13.00;99.90
2391;DHT22;22957;50.824;4.360;2023-10-31T00:15:50;13.10;99.90
2391;DHT22;22957;50.824;4.360;2023-10-31T00:18:16;13.30;99.90
2391;DHT22;22957;50.824;4.360;2023-10-31T00:20:41;13.30;99.90
2391;DHT22;22957;50.824;4.360;2023-10-31T00:23:07;13.10;99.90
2391;DHT22;22957;50.824;4.360;2023-10-31T00:25:33;13.10;99.90
2391;DHT22;22957;50.824;4.360;2023-10-31T00:27:58;13.10;99.90
2391;DHT22;22957;50.824;4.360;2023-10-31T00:30:24;12.90;99.90
2391;DHT22;22957;50.824;4.360;2023-10-31T00:32:49;13.20;99.90
2391;DHT22;22957;50.824;4.360;2023-10-31T00:35:15;13.20;99.90
2391;DHT22;22957;50.824;4.360;2023-10-31T00:37:41;13.30;99.90
2391;DHT22;22957;50.824;4.360;2023-10-31T00:40:07;13.30;99.90
2391;DHT22;22957;50.824;4.360;2023-10-31T00:42:37;13.20;99.90
2391;DHT22;22957;50.824;4.360;2023-10-31T00:45:02;13.30;99.90
2391;DHT22;22957;50.824;4.360;2023-10-31T00:47:28;13.10;99.90
2391;DHT22;22957;50.824;4.360;2023-10-31T00:49:53;13.10;99.90
2391;DHT22;22957;50.824;4.360;2023-10-31T00:52:19;12.90;99.90
2391;DHT22;22957;50.824;4.360;2023-10-31T00:54:45;12.80;99.90
2391;DHT22;22957;50.824;4.360;2023-10-31T00:57:10;12.70;99.90
2391;DHT22;22957;50.824;4.360;2023-10-31T00:59:36;13.00;99.90
2391;DHT22;22957;50.824;4.360;2023-10-31T01:02:03;13.30;99.90
2391;DHT22;22957;50.824;4.360;2023-10-31T01:04:28;13.20;99.90
2391;DHT22;22957;50.824;4.360;2023-10-31T01:06:54;12.90;99.90
2391;DHT22;22957;50.824;4.360;2023-10-31T01:09:19;13.20;99.90
2391;DHT22;22957;50.824;4.360;2023-10-31T01:11:45;13.00;99.90
2391;DHT22;22957;50.824;4.360;2023-10-31T01:14:10;12.70;99.90
2391;DHT22;22957;50.824;4.360;2023-10-31T01:16:36;12.70;99.90
2391;DHT22;22957;50.824;4.360;2023-10-31T01:19:01;13.10;99.90
2391;DHT22;22957;50.824;4.360;2023-10-31T01:21:27;12.90;99.90
2391;DHT22;22957;50.824;4.360;2023-10-31T01:23:52;13.00;99.90
2391;DHT22;22957;50.824;4.360;2023-10-31T01:26:18;13.40;99.90
2391;DHT22;22957;50.824;4.360;2023-10-31T01:28:44;13.20;99.90
2391;DHT22;22957;50.824;4.360;2023-10-31T01:31:09;13.10;99.90
2391;DHT22;22957;50.824;4.360;2023-10-31T01:33:35;13.40;99.90
2391;DHT22;22957;50.824;4.360;2023-10-31T01:36:01;12.90;99.90
2391;DHT22;22957;50.824;4.360;2023-10-31T01:38:26;12.60;99.90
2391;DHT22;22957;50.824;4.360;2023-10-31T01:40:52;13.00;99.90
2391;DHT22;22957;50.824;4.360;2023-10-31T01:43:35;13.00;99.90
2391;DHT22;22957;50.824;4.360;2023-10-31T01:46:00;12.80;99.90
2391;DHT22;22957;50.824;4.360;2023-10-31T01:48:29;12.70;99.90
2391;DHT22;22957;50.824;4.360;2023-10-31T01:50:56;12.60;99.90
2391;DHT22;22957;50.824;4.360;2023-10-31T01:53:24;12.80;99.90
2391;DHT22;22957;50.824;4.360;2023-10-31T01:55:50;12.80;99.90
2391;DHT22;22957;50.824;4.360;2023-10-31T01:58:16;12.70;99.90
2391;DHT22;22957;50.824;4.360;2023-10-31T02:00:43;12.50;99.90
2391;DHT22;22957;50.824;4.360;2023-10-31T02:03:09;12.70;99.90
2391;DHT22;22957;50.824;4.360;2023-10-31T02:05:34;12.40;99.90
2391;DHT22;22957;50.824;4.360;2023-10-31T02:08:03;12.40;99.90
2391;DHT22;22957;50.824;4.360;2023-10-31T02:10:30;12.30;99.90
2391;DHT22;22957;50.824;4.360;2023-10-31T02:12:56;12.70;99.90
2391;DHT22;22957;50.824;4.360;2023-10-31T02:15:21;12.90;99.90
2391;DHT22;22957;50.824;4.360;2023-10-31T02:17:47;12.90;99.90
2391;DHT22;22957;50.824;4.360;2023-10-31T02:20:12;12.80;99.90
2391;DHT22;22957;50.824;4.360;2023-10-31T02:22:38;12.50;99.90
2391;DHT22;22957;50.824;4.360;2023-10-31T02:25:14;12.50;99.90
2391;DHT22;22957;50.824;4.360;2023-10-31T02:27:40;12.70;99.90
2391;DHT22;22957;50.824;4.360;2023-10-31T02:30:06;12.90;99.90
2391;DHT22;22957;50.824;4.360;2023-10-31T02:32:32;12.90;99.90
2391;DHT22;22957;50.824;4.360;2023-10-31T02:34:58;12.80;99.90
2391;DHT22;22957;50.824;4.360;2023-10-31T02:37:23;12.60;99.90
2391;DHT22;22957;50.824;4.360;2023-10-31T02:39:49;12.80;99.90
2391;DHT22;22957;50.824;4.360;2023-10-31T02:42:14;13.00;99.90
2391;DHT22;22957;50.824;4.360;2023-10-31T02:44:40;13.00;99.90
2391;DHT22;22957;50.824;4.360;2023-10-31T02:47:06;12.90;99.90
2391;DHT22;22957;50.824;4.360;2023-10-31T02:49:31;12.50;99.90
2391;DHT22;22957;50.824;4.360;2023-10-31T02:51:57;12.30;99.90
2391;DHT22;22957;50.824;4.360;2023-10-31T02:54:22;12.40;99.90
2391;DHT22;22957;50.824;4.360;2023-10-31T02:56:48;12.60;99.90
2391;DHT22;22957;50.824;4.360;2023-10-31T02:59:14;12.50;99.90
2391;DHT22;22957;50.824;4.360;2023-10-31T03:01:39;12.40;99.90
2391;DHT22;22957;50.824;4.360;2023-10-31T03:04:05;12.70;99.90
2391;DHT22;22957;50.824;4.360;2023-10-31T03:06:30;12.60;99.90
2391;DHT22;22957;50.824;4.360;2023-10-31T03:08:56;12.70;99.90
2391;DHT22;22957;50.824;4.360;2023-10-31T03:11:25;12.80;99.90
2391;DHT22;22957;50.824;4.360;2023-10-31T03:13:51;12.40;99.90
2391;DHT22;22957;50.824;4.360;2023-10-31T03:16:19;12.40;99.90
2391;DHT22;22957;50.824;4.360;2023-10-31T03:18:45;12.40;99.90
2391;DHT22;22957;50.824;4.360;2023-10-31T03:21:12;12.20;99.90
2391;DHT22;22957;50.824;4.360;2023-10-31T03:23:37;12.50;99.90
2391;DHT22;22957;50.824;4.360;2023-10-31T03:26:03;12.40;99.90
2391;DHT22;22957;50.824;4.360;2023-10-31T03:28:28;12.10;99.90
2391;DHT22;22957;50.824;4.360;2023-10-31T03:30:54;12.40;99.90
2391;DHT22;22957;50.824;4.360;2023-10-31T03:33:20;12.30;99.90
2391;DHT22;22957;50.824;4.360;2023-10-31T03:35:46;12.30;99.90
2391;DHT22;22957;50.824;4.360;2023-10-31T03:38:12;12.60;99.90
2391;DHT22;22957;50.824;4.360;2023-10-31T03:40:37;12.60;99.90
2391;DHT22;22957;50.824;4.360;2023-10-31T03:43:03;12.50;99.90
2391;DHT22;22957;50.824;4.360;2023-10-31T03:45:29;12.50;99.90
2391;DHT22;22957;50.824;4.360;2023-10-31T03:47:55;12.40;99.90
2391;DHT22;22957;50.824;4.360;2023-10-31T03:50:21;12.40;99.90
2391;DHT22;22957;50.824;4.360;2023-10-31T03:52:47;12.30;99.90
2391;DHT22;22957;50.824;4.360;2023-10-31T03:55:12;12.40;99.90
2391;DHT22;22957;50.824;4.360;2023-10-31T03:57:38;12.30;99.90
2391;DHT22;22957;50.824;4.360;2023-10-31T04:00:04;12.30;99.90
2391;DHT22;22957;50.824;4.360;2023-10-31T04:02:32;12.70;99.90
2391;DHT22;22957;50.824;4.360;2023-10-31T04:04:58;12.50;99.90
2391;DHT22;22957;50.824;4.360;2023-10-31T04:07:24;12.70;99.90
2391;DHT22;22957;50.824;4.360;2023-10-31T04:09:49;12.50;99.90
2391;DHT22;22957;50.824;4.360;2023-10-31T04:12:15;12.50;99.90
2391;DHT22;22957;50.824;4.360;2023-10-31T04:14:41;12.60;99.90
2391;DHT22;22957;50.824;4.360;2023-10-31T04:17:06;12.50;99.90
2391;DHT22;22957;50.824;4.360;2023-10-31T04:19:32;12.70;99.90
2391;DHT22;22957;50.824;4.360;2023-10-31T04:21:57;12.60;99.90
2391;DHT22;22957;50.824;4.360;2023-10-31T04:24:23;12.70;99.90
2391;DHT22;22957;50.824;4.360;2023-10-31T04:26:48;12.50;99.90
2391;DHT22;22957;50.824;4.360;2023-10-31T04:29:14;12.80;99.90
2391;DHT22;22957;50.824;4.360;2023-10-31T04:31:40;12.60;99.90
2391;DHT22;22957;50.824;4.360;2023-10-31T04:34:05;12.60;99.90
2391;DHT22;22957;50.824;4.360;2023-10-31T04:36:31;12.80;99.90
2391;DHT22;22957;50.824;4.360;2023-10-31T04:38:56;12.70;99.90
2391;DHT22;22957;50.824;4.360;2023-10-31T04:41:22;12.40;99.90
2391;DHT22;22957;50.824;4.360;2023-10-31T04:43:47;12.30;99.90
2391;DHT22;22957;50.824;4.360;2023-10-31T04:46:13;12.70;99.90
2391;DHT22;22957;50.824;4.360;2023-10-31T04:48:39;11.90;99.90
2391;DHT22;22957;50.824;4.360;2023-10-31T04:51:05;12.80;99.90
2391;DHT22;22957;50.824;4.360;2023-10-31T04:53:30;12.70;99.90
2391;DHT22;22957;50.824;4.360;2023-10-31T04:55:58;12.60;99.90
2391;DHT22;22957;50.824;4.360;2023-10-31T04:58:23;12.50;99.90
2391;DHT22;22957;50.824;4.360;2023-10-31T05:00:49;12.60;99.90
2391;DHT22;22957;50.824;4.360;2023-10-31T05:03:15;12.80;99.90
2391;DHT22;22957;50.824;4.360;2023-10-31T05:05:40;12.80;99.90
2391;DHT22;22957;50.824;4.360;2023-10-31T05:08:06;13.00;99.90
2391;DHT22;22957;50.824;4.360;2023-10-31T05:10:31;13.00;99.90
2391;DHT22;22957;50.824;4.360;2023-10-31T05:12:57;12.70;99.90
2391;DHT22;22957;50.824;4.360;2023-10-31T05:15:22;12.70;99.90
2391;DHT22;22957;50.824;4.360;2023-10-31T05:17:48;12.70;99.90
2391;DHT22;22957;50.824;4.360;2023-10-31T05:20:14;12.70;99.90
2391;DHT22;22957;50.824;4.360;2023-10-31T05:22:41;12.60;99.90
2391;DHT22;22957;50.824;4.360;2023-10-31T05:25:06;12.70;99.90
2391;DHT22;22957;50.824;4.360;2023-10-31T05:27:32;12.90;99.90
2391;DHT22;22957;50.824;4.360;2023-10-31T05:29:58;12.80;99.90
2391;DHT22;22957;50.824;4.360;2023-10-31T05:32:23;12.90;99.90
2391;DHT22;22957;50.824;4.360;2023-10-31T05:34:49;12.70;99.90
2391;DHT22;22957;50.824;4.360;2023-10-31T05:37:14;12.80;99.90
2391;DHT22;22957;50.824;4.360;2023-10-31T05:39:40;12.80;99.90
2391;DHT22;22957;50.824;4.360;2023-10-31T05:42:05;13.00;99.90
2391;DHT22;22957;50.824;4.360;2023-10-31T05:44:31;13.10;99.90
2391;DHT22;22957;50.824;4.360;2023-10-31T05:46:57;12.80;99.90
2391;DHT22;22957;50.824;4.360;2023-10-31T05:49:22;12.60;99.90
2391;DHT22;22957;50.824;4.360;2023-10-31T05:51:51;12.30;99.90
2391;DHT22;22957;50.824;4.360;2023-10-31T05:54:17;12.60;99.90
2391;DHT22;22957;50.824;4.360;2023-10-31T05:56:43;12.50;99.90
2391;DHT22;22957;50.824;4.360;2023-10-31T05:59:10;12.60;99.90
2391;DHT22;22957;50.824;4.360;2023-10-31T06:01:36;12.70;99.90
2391;DHT22;22957;50.824;4.360;2023-10-31T06:04:02;12.90;99.90
2391;DHT22;22957;50.824;4.360;2023-10-31T06:06:28;12.80;99.90
2391;DHT22;22957;50.824;4.360;2023-10-31T06:08:53;12.80;99.90
2391;DHT22;22957;50.824;4.360;2023-10-31T06:11:19;12.80;99.90
2391;DHT22;22957;50.824;4.360;2023-10-31T06:13:44;12.90;99.90
2391;DHT22;22957;50.824;4.360;2023-10-31T06:16:10;12.70;99.90
2391;DHT22;22957;50.824;4.360;2023-10-31T06:18:38;12.50;99.90
2391;DHT22;22957;50.824;4.360;2023-10-31T06:21:04;12.50;99.90
2391;DHT22;22957;50.824;4.360;2023-10-31T06:23:29;12.60;99.90
2391;DHT22;22957;50.824;4.360;2023-10-31T06:25:55;12.60;99.90
2391;DHT22;22957;50.824;4.360;2023-10-31T06:28:20;12.70;99.90
2391;DHT22;22957;50.824;4.360;2023-10-31T06:30:46;12.60;99.90
2391;DHT22;22957;50.824;4.360;2023-10-31T06:33:12;12.80;99.90
2391;DHT22;22957;50.824;4.360;2023-10-31T06:35:37;12.60;99.90
2391;DHT22;22957;50.824;4.360;2023-10-31T06:38:03;12.70;99.90
2391;DHT22;22957;50.824;4.360;2023-10-31T06:40:28;12.70;99.90
2391;DHT22;22957;50.824;4.360;2023-10-31T06:42:54;12.60;99.90
2391;DHT22;22957;50.824;4.360;2023-10-31T06:45:19;12.90;99.90
2391;DHT22;22957;50.824;4.360;2023-10-31T06:47:45;12.70;99.90
2391;DHT22;22957;50.824;4.360;2023-10-31T06:50:11;12.90;99.90
2391;DHT22;22957;50.824;4.360;2023-10-31T06:52:36;12.90;99.90
2391;DHT22;22957;50.824;4.360;2023-10-31T06:55:02;12.50;99.90
2391;DHT22;22957;50.824;4.360;2023-10-31T06:57:28;13.20;99.90
2391;DHT22;22957;50.824;4.360;2023-10-31T06:59:53;13.00;99.90
2391;DHT22;22957;50.824;4.360;2023-10-31T07:02:19;12.80;99.90
2391;DHT22;22957;50.824;4.360;2023-10-31T07:04:45;13.00;99.90
2391;DHT22;22957;50.824;4.360;2023-10-31T07:07:10;13.20;99.90
2391;DHT22;22957;50.824;4.360;2023-10-31T07:09:36;13.00;99.90
2391;DHT22;22957;50.824;4.360;2023-10-31T07:12:01;12.90;99.90
2391;DHT22;22957;50.824;4.360;2023-10-31T07:14:27;12.70;99.90
2391;DHT22;22957;50.824;4.360;2023-10-31T07:16:53;12.90;99.90
2391;DHT22;22957;50.824;4.360;2023-10-31T07:19:18;13.00;99.90
2391;DHT22;22957;50.824;4.360;2023-10-31T07:21:44;13.20;99.90
2391;DHT22;22957;50.824;4.360;2023-10-31T07:24:09;13.30;99.90
2391;DHT22;22957;50.824;4.360;2023-10-31T07:26:35;13.10;99.90
2391;DHT22;22957;50.824;4.360;2023-10-31T07:29:01;12.90;99.90
2391;DHT22;22957;50.824;4.360;2023-10-31T07:31:26;13.30;99.90
2391;DHT22;22957;50.824;4.360;2023-10-31T07:33:52;13.10;99.90
2391;DHT22;22957;50.824;4.360;2023-10-31T07:36:17;13.10;99.90
2391;DHT22;22957;50.824;4.360;2023-10-31T07:38:43;13.30;99.90
2391;DHT22;22957;50.824;4.360;2023-10-31T07:41:09;13.50;99.90
2391;DHT22;22957;50.824;4.360;2023-10-31T07:43:34;13.80;99.90
2391;DHT22;22957;50.824;4.360;2023-10-31T07:46:00;14.00;99.90
2391;DHT22;22957;50.824;4.360;2023-10-31T07:48:25;13.90;99.90
2391;DHT22;22957;50.824;4.360;2023-10-31T07:50:51;13.60;99.90
2391;DHT22;22957;50.824;4.360;2023-10-31T07:53:16;13.60;99.90
2391;DHT22;22957;50.824;4.360;2023-10-31T07:55:42;13.40;99.90
2391;DHT22;22957;50.824;4.360;2023-10-31T07:58:08;13.50;99.90
2391;DHT22;22957;50.824;4.360;2023-10-31T08:00:35;13.50;99.90
2391;DHT22;22957;50.824;4.360;2023-10-31T08:03:01;13.70;99.90
2391;DHT22;22957;50.824;4.360;2023-10-31T08:05:27;13.50;99.90
2391;DHT22;22957;50.824;4.360;2023-10-31T08:07:53;13.80;99.90
2391;DHT22;22957;50.824;4.360;2023-10-31T08:10:18;13.50;99.90
2391;DHT22;22957;50.824;4.360;2023-10-31T08:12:44;13.40;99.90
2391;DHT22;22957;50.824;4.360;2023-10-31T08:15:10;13.70;99.90
2391;DHT22;22957;50.824;4.360;2023-10-31T08:17:35;13.50;99.90
2391;DHT22;22957;50.824;4.360;2023-10-31T08:20:02;13.40;99.90
2391;DHT22;22957;50.824;4.360;2023-10-31T08:22:31;13.40;99.90
2391;DHT22;22957;50.824;4.360;2023-10-31T08:24:56;13.00;99.90
2391;DHT22;22957;50.824;4.360;2023-10-31T08:27:22;13.20;99.90
2391;DHT22;22957;50.824;4.360;2023-10-31T08:29:47;13.80;99.90
2391;DHT22;22957;50.824;4.360;2023-10-31T08:32:13;13.50;99.90
2391;DHT22;22957;50.824;4.360;2023-10-31T08:34:38;13.50;99.90
2391;DHT22;22957;50.824;4.360;2023-10-31T08:37:04;13.40;99.90
2391;DHT22;22957;50.824;4.360;2023-10-31T08:39:29;13.20;99.90
2391;DHT22;22957;50.824;4.360;2023-10-31T08:41:57;13.70;99.90
2391;DHT22;22957;50.824;4.360;2023-10-31T08:44:23;13.10;99.90
2391;DHT22;22957;50.824;4.360;2023-10-31T08:46:49;13.70;99.90
2391;DHT22;22957;50.824;4.360;2023-10-31T08:49:15;13.40;99.90
2391;DHT22;22957;50.824;4.360;2023-10-31T08:51:41;13.10;99.90
2391;DHT22;22957;50.824;4.360;2023-10-31T08:54:07;13.20;99.90
2391;DHT22;22957;50.824;4.360;2023-10-31T08:56:34;13.60;99.90
2391;DHT22;22957;50.824;4.360;2023-10-31T08:58:59;13.60;99.90
2391;DHT22;22957;50.824;4.360;2023-10-31T09:01:26;13.90;99.90
2391;DHT22;22957;50.824;4.360;2023-10-31T09:03:52;13.80;99.90
2391;DHT22;22957;50.824;4.360;2023-10-31T09:06:18;14.60;99.90
2391;DHT22;22957;50.824;4.360;2023-10-31T09:08:43;15.10;99.90
2391;DHT22;22957;50.824;4.360;2023-10-31T09:11:09;15.20;99.90
2391;DHT22;22957;50.824;4.360;2023-10-31T09:13:34;15.40;99.90
2391;DHT22;22957;50.824;4.360;2023-10-31T09:16:00;15.50;99.90
2391;DHT22;22957;50.824;4.360;2023-10-31T09:18:26;15.90;99.90
2391;DHT22;22957;50.824;4.360;2023-10-31T09:20:52;15.50;99.90
2391;DHT22;22957;50.824;4.360;2023-10-31T09:23:18;15.30;99.90
2391;DHT22;22957;50.824;4.360;2023-10-31T09:25:46;15.00;99.90
2391;DHT22;22957;50.824;4.360;2023-10-31T09:28:12;15.00;99.90
2391;DHT22;22957;50.824;4.360;2023-10-31T09:30:38;15.30;99.90
2391;DHT22;22957;50.824;4.360;2023-10-31T09:33:03;15.40;99.90
2391;DHT22;22957;50.824;4.360;2023-10-31T09:35:29;15.20;99.90
2391;DHT22;22957;50.824;4.360;2023-10-31T09:37:55;14.50;99.90
2391;DHT22;22957;50.824;4.360;2023-10-31T09:40:21;14.30;99.90
2391;DHT22;22957;50.824;4.360;2023-10-31T09:42:48;14.70;99.90
2391;DHT22;22957;50.824;4.360;2023-10-31T09:45:14;14.60;99.90
2391;DHT22;22957;50.824;4.360;2023-10-31T09:47:40;14.60;99.90
2391;DHT22;22957;50.824;4.360;2023-10-31T09:50:07;15.00;99.90
2391;DHT22;22957;50.824;4.360;2023-10-31T09:52:36;14.70;99.90
2391;DHT22;22957;50.824;4.360;2023-10-31T09:55:02;14.80;99.90
2391;DHT22;22957;50.824;4.360;2023-10-31T09:57:28;14.90;99.90
2391;DHT22;22957;50.824;4.360;2023-10-31T09:59:54;15.00;99.90
2391;DHT22;22957;50.824;4.360;2023-10-31T10:02:19;15.10;99.90
2391;DHT22;22957;50.824;4.360;2023-10-31T10:04:45;15.30;99.90
2391;DHT22;22957;50.824;4.360;2023-10-31T10:07:15;15.40;99.90
2391;DHT22;22957;50.824;4.360;2023-10-31T10:09:42;15.30;99.90
2391;DHT22;22957;50.824;4.360;2023-10-31T10:12:12;15.10;99.90
2391;DHT22;22957;50.824;4.360;2023-10-31T10:14:38;15.30;99.90
2391;DHT22;22957;50.824;4.360;2023-10-31T10:17:15;15.40;99.90
2391;DHT22;22957;50.824;4.360;2023-10-31T10:19:41;15.50;99.90
2391;DHT22;22957;50.824;4.360;2023-10-31T10:22:07;15.50;99.90
2391;DHT22;22957;50.824;4.360;2023-10-31T10:24:33;15.50;99.90
2391;DHT22;22957;50.824;4.360;2023-10-31T10:26:58;15.20;99.90
2391;DHT22;22957;50.824;4.360;2023-10-31T10:29:24;14.60;99.90
2391;DHT22;22957;50.824;4.360;2023-10-31T10:31:51;14.60;99.90
2391;DHT22;22957;50.824;4.360;2023-10-31T10:34:17;14.60;99.90
2391;DHT22;22957;50.824;4.360;2023-10-31T10:36:49;14.50;99.90
2391;DHT22;22957;50.824;4.360;2023-10-31T10:39:21;14.40;99.90
2391;DHT22;22957;50.824;4.360;2023-10-31T10:41:53;14.60;99.90
2391;DHT22;22957;50.824;4.360;2023-10-31T10:44:32;14.40;99.90
2391;DHT22;22957;50.824;4.360;2023-10-31T10:46:58;14.50;99.90
2391;DHT22;22957;50.824;4.360;2023-10-31T10:49:27;14.30;99.90
2391;DHT22;22957;50.824;4.360;2023-10-31T10:51:59;14.90;99.90
2391;DHT22;22957;50.824;4.360;2023-10-31T10:54:34;14.80;99.90
2391;DHT22;22957;50.824;4.360;2023-10-31T10:57:37;15.10;99.90
2391;DHT22;22957;50.824;4.360;2023-10-31T11:00:05;14.60;99.90
2391;DHT22;22957;50.824;4.360;2023-10-31T11:02:36;14.90;99.90
2391;DHT22;22957;50.824;4.360;2023-10-31T11:05:05;14.50;99.90
2391;DHT22;22957;50.824;4.360;2023-10-31T11:07:32;14.60;99.90
2391;DHT22;22957;50.824;4.360;2023-10-31T11:10:00;14.70;99.90
2391;DHT22;22957;50.824;4.360;2023-10-31T11:12:29;14.90;99.90
2391;DHT22;22957;50.824;4.360;2023-10-31T11:14:57;14.50;99.90
2391;DHT22;22957;50.824;4.360;2023-10-31T11:17:31;14.30;99.90
2391;DHT22;22957;50.824;4.360;2023-10-31T11:19:58;14.30;99.90
2391;DHT22;22957;50.824;4.360;2023-10-31T11:22:24;14.50;99.90
2391;DHT22;22957;50.824;4.360;2023-10-31T11:24:50;14.60;99.90
2391;DHT22;22957;50.824;4.360;2023-10-31T11:27:17;14.40;99.90
2391;DHT22;22957;50.824;4.360;2023-10-31T11:29:43;14.70;99.90
2391;DHT22;22957;50.824;4.360;2023-10-31T11:32:12;14.60;99.90
2391;DHT22;22957;50.824;4.360;2023-10-31T11:34:41;14.90;99.90
2391;DHT22;22957;50.824;4.360;2023-10-31T11:37:27;14.70;99.90
2391;DHT22;22957;50.824;4.360;2023-10-31T11:40:21;15.00;99.90
2391;DHT22;22957;50.824;4.360;2023-10-31T11:42:52;15.10;99.90
2391;DHT22;22957;50.824;4.360;2023-10-31T11:45:36;15.50;99.90
2391;DHT22;22957;50.824;4.360;2023-10-31T11:48:07;15.20;99.90
2391;DHT22;22957;50.824;4.360;2023-10-31T11:50:34;14.70;99.90
2391;DHT22;22957;50.824;4.360;2023-10-31T11:53:07;14.70;99.90
2391;DHT22;22957;50.824;4.360;2023-10-31T11:55:35;14.40;99.90
2391;DHT22;22957;50.824;4.360;2023-10-31T11:58:20;14.80;99.90
2391;DHT22;22957;50.824;4.360;2023-10-31T12:00:47;14.80;99.90
2391;DHT22;22957;50.824;4.360;2023-10-31T12:03:16;15.00;99.90
2391;DHT22;22957;50.824;4.360;2023-10-31T12:05:58;14.80;99.90
2391;DHT22;22957;50.824;4.360;2023-10-31T12:08:32;14.30;99.90
2391;DHT22;22957;50.824;4.360;2023-10-31T12:11:09;14.40;99.90
2391;DHT22;22957;50.824;4.360;2023-10-31T12:13:39;14.30;99.90
2391;DHT22;22957;50.824;4.360;2023-10-31T12:16:07;14.70;99.90
2391;DHT22;22957;50.824;4.360;2023-10-31T12:18:36;14.30;99.90
2391;DHT22;22957;50.824;4.360;2023-10-31T12:21:04;14.20;99.90
2391;DHT22;22957;50.824;4.360;2023-10-31T12:23:29;14.20;99.90
2391;DHT22;22957;50.824;4.360;2023-10-31T12:25:55;14.20;99.90
2391;DHT22;22957;50.824;4.360;2023-10-31T12:28:23;13.90;99.90
2391;DHT22;22957;50.824;4.360;2023-10-31T12:30:51;14.20;99.90
2391;DHT22;22957;50.824;4.360;2023-10-31T12:33:20;14.00;99.90
2391;DHT22;22957;50.824;4.360;2023-10-31T12:35:47;14.30;99.90
2391;DHT22;22957;50.824;4.360;2023-10-31T12:38:14;14.30;99.90
2391;DHT22;22957;50.824;4.360;2023-10-31T12:40:46;14.30;99.90
2391;DHT22;22957;50.824;4.360;2023-10-31T12:43:12;14.50;99.90
2391;DHT22;22957;50.824;4.360;2023-10-31T12:45:37;14.70;99.90
2391;DHT22;22957;50.824;4.360;2023-10-31T12:48:05;14.30;99.90
2391;DHT22;22957;50.824;4.360;2023-10-31T12:50:33;14.40;99.90
2391;DHT22;22957;50.824;4.360;2023-10-31T12:52:59;14.40;99.90
2391;DHT22;22957;50.824;4.360;2023-10-31T12:55:26;14.50;99.90
2391;DHT22;22957;50.824;4.360;2023-10-31T12:57:52;14.50;99.90
2391;DHT22;22957;50.824;4.360;2023-10-31T13:00:20;14.30;99.90
2391;DHT22;22957;50.824;4.360;2023-10-31T13:02:58;14.20;99.90
2391;DHT22;22957;50.824;4.360;2023-10-31T13:05:26;14.20;99.90
2391;DHT22;22957;50.824;4.360;2023-10-31T13:07:52;14.20;99.90
2391;DHT22;22957;50.824;4.360;2023-10-31T13:10:28;14.30;99.90
2391;DHT22;22957;50.824;4.360;2023-10-31T13:12:54;14.10;99.90
2391;DHT22;22957;50.824;4.360;2023-10-31T13:15:20;14.00;99.90
2391;DHT22;22957;50.824;4.360;2023-10-31T13:17:48;14.30;99.90
2391;DHT22;22957;50.824;4.360;2023-10-31T13:20:15;14.10;99.90
2391;DHT22;22957;50.824;4.360;2023-10-31T13:22:42;14.20;99.90
2391;DHT22;22957;50.824;4.360;2023-10-31T13:25:09;13.90;99.90
2391;DHT22;22957;50.824;4.360;2023-10-31T13:27:42;13.50;99.90
2391;DHT22;22957;50.824;4.360;2023-10-31T13:30:12;13.90;99.90
2391;DHT22;22957;50.824;4.360;2023-10-31T13:32:42;14.10;99.90
2391;DHT22;22957;50.824;4.360;2023-10-31T13:35:07;14.00;99.90
2391;DHT22;22957;50.824;4.360;2023-10-31T13:37:37;13.80;99.90
2391;DHT22;22957;50.824;4.360;2023-10-31T13:40:03;13.40;99.90
2391;DHT22;22957;50.824;4.360;2023-10-31T13:42:29;13.50;99.90
2391;DHT22;22957;50.824;4.360;2023-10-31T13:44:55;13.90;99.90
2391;DHT22;22957;50.824;4.360;2023-10-31T13:47:20;14.00;99.90
2391;DHT22;22957;50.824;4.360;2023-10-31T13:49:46;14.30;99.90
2391;DHT22;22957;50.824;4.360;2023-10-31T13:52:12;13.60;99.90
2391;DHT22;22957;50.824;4.360;2023-10-31T13:54:38;14.00;99.90
2391;DHT22;22957;50.824;4.360;2023-10-31T13:57:03;14.50;99.90
2391;DHT22;22957;50.824;4.360;2023-10-31T13:59:29;14.10;99.90
2391;DHT22;22957;50.824;4.360;2023-10-31T14:01:55;14.50;99.90
2391;DHT22;22957;50.824;4.360;2023-10-31T14:04:20;14.50;99.90
2391;DHT22;22957;50.824;4.360;2023-10-31T14:06:46;15.20;99.90
2391;DHT22;22957;50.824;4.360;2023-10-31T14:09:13;14.90;99.90
2391;DHT22;22957;50.824;4.360;2023-10-31T14:11:39;14.70;99.90
2391;DHT22;22957;50.824;4.360;2023-10-31T14:14:05;14.90;99.90
2391;DHT22;22957;50.824;4.360;2023-10-31T14:16:42;15.00;99.90
2391;DHT22;22957;50.824;4.360;2023-10-31T14:19:11;14.70;99.90
2391;DHT22;22957;50.824;4.360;2023-10-31T14:21:38;14.60;99.90
2391;DHT22;22957;50.824;4.360;2023-10-31T14:24:04;14.90;99.90
2391;DHT22;22957;50.824;4.360;2023-10-31T14:26:30;15.00;99.90
2391;DHT22;22957;50.824;4.360;2023-10-31T14:28:58;15.30;99.90
2391;DHT22;22957;50.824;4.360;2023-10-31T14:31:23;15.20;99.90
2391;DHT22;22957;50.824;4.360;2023-10-31T14:33:49;14.90;99.90
2391;DHT22;22957;50.824;4.360;2023-10-31T14:36:15;15.20;99.90
2391;DHT22;22957;50.824;4.360;2023-10-31T14:38:41;15.20;99.90
2391;DHT22;22957;50.824;4.360;2023-10-31T14:41:07;14.90;99.90
2391;DHT22;22957;50.824;4.360;2023-10-31T14:43:33;15.50;99.90
2391;DHT22;22957;50.824;4.360;2023-10-31T14:46:00;15.10;99.90
2391;DHT22;22957;50.824;4.360;2023-10-31T14:48:26;15.20;99.90
2391;DHT22;22957;50.824;4.360;2023-10-31T14:50:51;15.10;99.90
2391;DHT22;22957;50.824;4.360;2023-10-31T14:53:17;15.60;99.90
2391;DHT22;22957;50.824;4.360;2023-10-31T14:55:46;15.20;99.90
2391;DHT22;22957;50.824;4.360;2023-10-31T14:58:12;14.90;99.90
2391;DHT22;22957;50.824;4.360;2023-10-31T15:00:38;15.40;99.90
2391;DHT22;22957;50.824;4.360;2023-10-31T15:03:04;15.00;99.90
2391;DHT22;22957;50.824;4.360;2023-10-31T15:05:30;15.40;99.90
2391;DHT22;22957;50.824;4.360;2023-10-31T15:07:56;15.50;99.90
2391;DHT22;22957;50.824;4.360;2023-10-31T15:10:23;15.20;99.90
2391;DHT22;22957;50.824;4.360;2023-10-31T15:12:49;15.20;99.90
2391;DHT22;22957;50.824;4.360;2023-10-31T15:15:16;15.20;99.90
2391;DHT22;22957;50.824;4.360;2023-10-31T15:17:41;14.70;99.90
2391;DHT22;22957;50.824;4.360;2023-10-31T15:20:08;14.80;99.90
2391;DHT22;22957;50.824;4.360;2023-10-31T15:22:36;14.70;99.90
2391;DHT22;22957;50.824;4.360;2023-10-31T15:25:02;14.90;99.90
2391;DHT22;22957;50.824;4.360;2023-10-31T15:27:27;14.40;99.90
2391;DHT22;22957;50.824;4.360;2023-10-31T15:29:53;14.50;99.90
2391;DHT22;22957;50.824;4.360;2023-10-31T15:32:19;14.70;99.90
2391;DHT22;22957;50.824;4.360;2023-10-31T15:34:44;14.70;99.90
2391;DHT22;22957;50.824;4.360;2023-10-31T15:37:10;14.60;99.90
2391;DHT22;22957;50.824;4.360;2023-10-31T15:39:37;14.60;99.90
2391;DHT22;22957;50.824;4.360;2023-10-31T15:42:03;14.40;99.90